sensor_id;sensor_type;location;lat;lon;timestamp;temperature;humidity
39067;DHT22;24821;51.988;6.020;2023-03-19T00:01:22;12.60;99.90
39067;DHT22;24821;51.988;6.020;2023-03-19T00:03:48;12.70;99.90
39067;DHT22;24821;51.988;6.020;2023-03-19T00:06:13;12.60;99.90
39067;DHT22;24821;51.988;6.020;2023-03-19T00:08:39;12.60;99.90
39067;DHT22;24821;51.988;6.020;2023-03-19T00:11:06;12.60;99.90
39067;DHT22;24821;51.988;6.020;2023-03-19T00:13:32;12.50;99.90
39067;DHT22;24821;51.988;6.020;2023-03-19T00:15:57;12.50;99.90
39067;DHT22;24821;51.988;6.020;2023-03-19T00:18:23;12.50;99.90
39067;DHT22;24821;51.988;6.020;2023-03-19T00:20:48;12.40;99.90
39067;DHT22;24821;51.988;6.020;2023-03-19T00:23:15;12.40;99.90
39067;DHT22;24821;51.988;6.020;2023-03-19T00:25:40;12.30;99.90
39067;DHT22;24821;51.988;6.020;2023-03-19T00:28:06;12.30;99.90
39067;DHT22;24821;51.988;6.020;2023-03-19T00:30:32;12.30;99.90
39067;DHT22;24821;51.988;6.020;2023-03-19T00:32:58;12.30;99.90
39067;DHT22;24821;51.988;6.020;2023-03-19T00:35:24;12.30;99.90
39067;DHT22;24821;51.988;6.020;2023-03-19T00:37:49;12.20;99.90
39067;DHT22;24821;51.988;6.020;2023-03-19T00:40:15;12.20;99.90
39067;DHT22;24821;51.988;6.020;2023-03-19T00:42:40;12.20;99.90
39067;DHT22;24821;51.988;6.020;2023-03-19T00:45:09;12.20;99.90
39067;DHT22;24821;51.988;6.020;2023-03-19T00:47:35;12.10;99.90
39067;DHT22;24821;51.988;6.020;2023-03-19T00:50:02;12.10;99.90
39067;DHT22;24821;51.988;6.020;2023-03-19T00:52:28;12.00;99.90
39067;DHT22;24821;51.988;6.020;2023-03-19T00:54:54;12.00;99.90
39067;DHT22;24821;51.988;6.020;2023-03-19T00:57:20;12.00;99.90
39067;DHT22;24821;51.988;6.020;2023-03-19T00:59:46;12.00;99.90
39067;DHT22;24821;51.988;6.020;2023-03-19T01:02:12;11.90;99.90
39067;DHT22;24821;51.988;6.020;2023-03-19T01:04:38;11.90;99.90
39067;DHT22;24821;51.988;6.020;2023-03-19T01:07:03;11.90;99.90
39067;DHT22;24821;51.988;6.020;2023-03-19T01:09:29;11.90;99.90
39067;DHT22;24821;51.988;6.020;2023-03-19T01:11:55;12.00;99.90
39067;DHT22;24821;51.988;6.020;2023-03-19T01:14:21;11.90;99.90
39067;DHT22;24821;51.988;6.020;2023-03-19T01:16:47;11.90;99.90
39067;DHT22;24821;51.988;6.020;2023-03-19T01:19:12;11.90;99.90
39067;DHT22;24821;51.988;6.020;2023-03-19T01:21:38;11.90;99.90
39067;DHT22;24821;51.988;6.020;2023-03-19T01:24:04;11.90;99.90
39067;DHT22;24821;51.988;6.020;2023-03-19T01:26:30;11.90;99.90
39067;DHT22;24821;51.988;6.020;2023-03-19T01:28:57;11.90;99.90
39067;DHT22;24821;51.988;6.020;2023-03-19T01:31:22;11.90;99.90
39067;DHT22;24821;51.988;6.020;2023-03-19T01:33:48;11.80;99.90
39067;DHT22;24821;51.988;6.020;2023-03-19T01:36:13;11.80;99.90
39067;DHT22;24821;51.988;6.020;2023-03-19T01:38:39;11.70;99.90
39067;DHT22;24821;51.988;6.020;2023-03-19T01:41:05;11.70;99.90
39067;DHT22;24821;51.988;6.020;2023-03-19T01:43:31;11.60;99.90
39067;DHT22;24821;51.988;6.020;2023-03-19T01:49:01;11.60;99.90
39067;DHT22;24821;51.988;6.020;2023-03-19T01:51:34;11.50;99.90
39067;DHT22;24821;51.988;6.020;2023-03-19T01:54:03;11.50;99.90
39067;DHT22;24821;51.988;6.020;2023-03-19T01:56:32;11.40;99.90
39067;DHT22;24821;51.988;6.020;2023-03-19T01:59:08;11.40;99.90
39067;DHT22;24821;51.988;6.020;2023-03-19T02:01:41;11.40;99.90
39067;DHT22;24821;51.988;6.020;2023-03-19T02:04:08;11.50;99.90
39067;DHT22;24821;51.988;6.020;2023-03-19T02:06:34;11.50;99.90
39067;DHT22;24821;51.988;6.020;2023-03-19T02:09:00;11.50;99.90
39067;DHT22;24821;51.988;6.020;2023-03-19T02:11:27;11.50;99.90
39067;DHT22;24821;51.988;6.020;2023-03-19T02:13:53;11.50;99.90
39067;DHT22;24821;51.988;6.020;2023-03-19T02:16:18;11.50;99.90
39067;DHT22;24821;51.988;6.020;2023-03-19T02:18:44;11.60;99.90
39067;DHT22;24821;51.988;6.020;2023-03-19T02:21:15;11.50;99.90
39067;DHT22;24821;51.988;6.020;2023-03-19T02:26:29;11.50;99.90
39067;DHT22;24821;51.988;6.020;2023-03-19T02:28:55;11.50;99.90
39067;DHT22;24821;51.988;6.020;2023-03-19T02:31:23;11.60;99.90
39067;DHT22;24821;51.988;6.020;2023-03-19T02:34:14;11.60;99.90
39067;DHT22;24821;51.988;6.020;2023-03-19T02:36:56;11.70;99.90
39067;DHT22;24821;51.988;6.020;2023-03-19T02:39:30;11.60;99.90
39067;DHT22;24821;51.988;6.020;2023-03-19T02:41:57;11.60;99.90
39067;DHT22;24821;51.988;6.020;2023-03-19T02:44:23;11.60;99.90
39067;DHT22;24821;51.988;6.020;2023-03-19T02:46:48;11.60;99.90
39067;DHT22;24821;51.988;6.020;2023-03-19T02:49:14;11.70;99.90
39067;DHT22;24821;51.988;6.020;2023-03-19T02:51:40;11.70;99.90
39067;DHT22;24821;51.988;6.020;2023-03-19T02:54:06;11.70;99.90
39067;DHT22;24821;51.988;6.020;2023-03-19T02:56:32;11.70;99.90
39067;DHT22;24821;51.988;6.020;2023-03-19T02:58:58;11.70;99.90
39067;DHT22;24821;51.988;6.020;2023-03-19T03:01:23;11.70;99.90
39067;DHT22;24821;51.988;6.020;2023-03-19T03:03:49;11.70;99.90
39067;DHT22;24821;51.988;6.020;2023-03-19T03:06:15;11.70;99.90
39067;DHT22;24821;51.988;6.020;2023-03-19T03:08:42;11.70;99.90
39067;DHT22;24821;51.988;6.020;2023-03-19T03:11:08;11.70;99.90
39067;DHT22;24821;51.988;6.020;2023-03-19T03:13:34;11.70;99.90
39067;DHT22;24821;51.988;6.020;2023-03-19T03:16:00;11.70;99.90
39067;DHT22;24821;51.988;6.020;2023-03-19T03:18:26;11.70;99.90
39067;DHT22;24821;51.988;6.020;2023-03-19T03:20:52;11.80;99.90
39067;DHT22;24821;51.988;6.020;2023-03-19T03:23:18;11.80;99.90
39067;DHT22;24821;51.988;6.020;2023-03-19T03:25:44;11.80;99.90
39067;DHT22;24821;51.988;6.020;2023-03-19T03:28:10;11.80;99.90
39067;DHT22;24821;51.988;6.020;2023-03-19T03:30:36;11.80;99.90
39067;DHT22;24821;51.988;6.020;2023-03-19T03:33:02;11.80;99.90
39067;DHT22;24821;51.988;6.020;2023-03-19T03:35:28;11.80;99.90
39067;DHT22;24821;51.988;6.020;2023-03-19T03:37:53;11.80;99.90
39067;DHT22;24821;51.988;6.020;2023-03-19T03:40:19;11.80;99.90
39067;DHT22;24821;51.988;6.020;2023-03-19T03:42:45;11.80;99.90
39067;DHT22;24821;51.988;6.020;2023-03-19T03:45:11;11.70;99.90
39067;DHT22;24821;51.988;6.020;2023-03-19T03:47:37;11.70;99.90
39067;DHT22;24821;51.988;6.020;2023-03-19T03:50:03;11.70;99.90
39067;DHT22;24821;51.988;6.020;2023-03-19T03:52:30;11.70;99.90
39067;DHT22;24821;51.988;6.020;2023-03-19T03:54:59;11.70;99.90
39067;DHT22;24821;51.988;6.020;2023-03-19T03:57:25;11.70;99.90
39067;DHT22;24821;51.988;6.020;2023-03-19T03:59:52;11.70;99.90
39067;DHT22;24821;51.988;6.020;2023-03-19T04:02:17;11.70;99.90
39067;DHT22;24821;51.988;6.020;2023-03-19T04:04:43;11.70;99.90
39067;DHT22;24821;51.988;6.020;2023-03-19T04:07:09;11.70;99.90
39067;DHT22;24821;51.988;6.020;2023-03-19T04:09:34;11.60;99.90
39067;DHT22;24821;51.988;6.020;2023-03-19T04:12:00;11.60;99.90
39067;DHT22;24821;51.988;6.020;2023-03-19T04:14:26;11.60;99.90
39067;DHT22;24821;51.988;6.020;2023-03-19T04:16:52;11.60;99.90
39067;DHT22;24821;51.988;6.020;2023-03-19T04:19:18;11.60;99.90
39067;DHT22;24821;51.988;6.020;2023-03-19T04:21:44;11.60;99.90
39067;DHT22;24821;51.988;6.020;2023-03-19T04:24:10;11.60;99.90
39067;DHT22;24821;51.988;6.020;2023-03-19T04:26:36;11.60;99.90
39067;DHT22;24821;51.988;6.020;2023-03-19T04:29:02;11.60;99.90
39067;DHT22;24821;51.988;6.020;2023-03-19T04:31:28;11.60;99.90
39067;DHT22;24821;51.988;6.020;2023-03-19T04:33:54;11.60;99.90
39067;DHT22;24821;51.988;6.020;2023-03-19T04:36:20;11.50;99.90
39067;DHT22;24821;51.988;6.020;2023-03-19T04:38:45;11.50;99.90
39067;DHT22;24821;51.988;6.020;2023-03-19T04:41:12;11.50;99.90
39067;DHT22;24821;51.988;6.020;2023-03-19T04:43:38;11.50;99.90
39067;DHT22;24821;51.988;6.020;2023-03-19T04:46:04;11.50;99.90
39067;DHT22;24821;51.988;6.020;2023-03-19T04:48:31;11.50;99.90
39067;DHT22;24821;51.988;6.020;2023-03-19T04:50:58;11.40;99.90
39067;DHT22;24821;51.988;6.020;2023-03-19T04:53:23;11.40;99.90
39067;DHT22;24821;51.988;6.020;2023-03-19T04:55:49;11.40;99.90
39067;DHT22;24821;51.988;6.020;2023-03-19T04:58:15;11.30;99.90
39067;DHT22;24821;51.988;6.020;2023-03-19T05:00:40;11.30;99.90
39067;DHT22;24821;51.988;6.020;2023-03-19T05:03:06;11.20;99.90
39067;DHT22;24821;51.988;6.020;2023-03-19T05:05:31;11.10;99.90
39067;DHT22;24821;51.988;6.020;2023-03-19T05:07:57;11.10;99.90
39067;DHT22;24821;51.988;6.020;2023-03-19T05:10:23;11.10;99.90
39067;DHT22;24821;51.988;6.020;2023-03-19T05:12:49;11.10;99.90
39067;DHT22;24821;51.988;6.020;2023-03-19T05:15:15;11.10;99.90
39067;DHT22;24821;51.988;6.020;2023-03-19T05:17:41;11.10;99.90
39067;DHT22;24821;51.988;6.020;2023-03-19T05:20:08;11.00;99.90
39067;DHT22;24821;51.988;6.020;2023-03-19T05:22:33;11.10;99.90
39067;DHT22;24821;51.988;6.020;2023-03-19T05:24:59;11.00;99.90
39067;DHT22;24821;51.988;6.020;2023-03-19T05:27:24;11.10;99.90
39067;DHT22;24821;51.988;6.020;2023-03-19T05:29:50;11.10;99.90
39067;DHT22;24821;51.988;6.020;2023-03-19T05:32:16;11.10;99.90
39067;DHT22;24821;51.988;6.020;2023-03-19T05:34:41;11.10;99.90
39067;DHT22;24821;51.988;6.020;2023-03-19T05:37:07;11.10;99.90
39067;DHT22;24821;51.988;6.020;2023-03-19T05:39:33;11.10;99.90
39067;DHT22;24821;51.988;6.020;2023-03-19T05:41:59;11.10;99.90
39067;DHT22;24821;51.988;6.020;2023-03-19T05:44:25;11.20;99.90
39067;DHT22;24821;51.988;6.020;2023-03-19T05:46:50;11.20;99.90
39067;DHT22;24821;51.988;6.020;2023-03-19T05:49:16;11.10;99.90
39067;DHT22;24821;51.988;6.020;2023-03-19T05:51:42;11.20;99.90
39067;DHT22;24821;51.988;6.020;2023-03-19T05:54:07;11.20;99.90
39067;DHT22;24821;51.988;6.020;2023-03-19T05:56:33;11.20;99.90
39067;DHT22;24821;51.988;6.020;2023-03-19T05:58:59;11.20;99.90
39067;DHT22;24821;51.988;6.020;2023-03-19T06:01:24;11.10;99.90
39067;DHT22;24821;51.988;6.020;2023-03-19T06:03:50;11.20;99.90
39067;DHT22;24821;51.988;6.020;2023-03-19T06:06:15;11.20;99.90
39067;DHT22;24821;51.988;6.020;2023-03-19T06:08:41;11.20;99.90
39067;DHT22;24821;51.988;6.020;2023-03-19T06:11:07;11.20;99.90
39067;DHT22;24821;51.988;6.020;2023-03-19T06:13:33;11.20;99.90
39067;DHT22;24821;51.988;6.020;2023-03-19T06:15:59;11.20;99.90
39067;DHT22;24821;51.988;6.020;2023-03-19T06:18:25;11.30;99.90
39067;DHT22;24821;51.988;6.020;2023-03-19T06:20:51;11.30;99.90
39067;DHT22;24821;51.988;6.020;2023-03-19T06:23:17;11.30;99.90
39067;DHT22;24821;51.988;6.020;2023-03-19T06:25:43;11.30;99.90
39067;DHT22;24821;51.988;6.020;2023-03-19T06:28:08;11.40;99.90
39067;DHT22;24821;51.988;6.020;2023-03-19T06:30:34;11.40;99.90
39067;DHT22;24821;51.988;6.020;2023-03-19T06:33:00;11.40;99.90
39067;DHT22;24821;51.988;6.020;2023-03-19T06:35:25;11.50;99.90
39067;DHT22;24821;51.988;6.020;2023-03-19T06:37:51;11.50;99.90
39067;DHT22;24821;51.988;6.020;2023-03-19T06:40:17;11.60;99.90
39067;DHT22;24821;51.988;6.020;2023-03-19T06:42:44;11.60;99.90
39067;DHT22;24821;51.988;6.020;2023-03-19T06:45:11;11.60;99.90
39067;DHT22;24821;51.988;6.020;2023-03-19T06:47:39;11.70;99.90
39067;DHT22;24821;51.988;6.020;2023-03-19T06:50:06;11.70;99.90
39067;DHT22;24821;51.988;6.020;2023-03-19T06:52:31;11.70;99.90
39067;DHT22;24821;51.988;6.020;2023-03-19T06:54:57;11.70;99.90
39067;DHT22;24821;51.988;6.020;2023-03-19T06:57:23;11.70;99.90
39067;DHT22;24821;51.988;6.020;2023-03-19T06:59:48;11.70;99.90
39067;DHT22;24821;51.988;6.020;2023-03-19T07:02:15;11.70;99.90
39067;DHT22;24821;51.988;6.020;2023-03-19T07:04:41;11.80;99.90
39067;DHT22;24821;51.988;6.020;2023-03-19T07:07:06;11.80;99.90
39067;DHT22;24821;51.988;6.020;2023-03-19T07:09:32;11.70;99.90
39067;DHT22;24821;51.988;6.020;2023-03-19T07:11:58;11.70;99.90
39067;DHT22;24821;51.988;6.020;2023-03-19T07:14:23;11.80;99.90
39067;DHT22;24821;51.988;6.020;2023-03-19T07:16:49;11.80;99.90
39067;DHT22;24821;51.988;6.020;2023-03-19T07:19:15;11.80;99.90
39067;DHT22;24821;51.988;6.020;2023-03-19T07:21:40;11.90;99.90
39067;DHT22;24821;51.988;6.020;2023-03-19T07:24:06;11.90;99.90
39067;DHT22;24821;51.988;6.020;2023-03-19T07:26:32;12.00;99.90
39067;DHT22;24821;51.988;6.020;2023-03-19T07:28:57;12.00;99.90
39067;DHT22;24821;51.988;6.020;2023-03-19T07:31:23;12.10;99.90
39067;DHT22;24821;51.988;6.020;2023-03-19T07:33:49;12.20;99.90
39067;DHT22;24821;51.988;6.020;2023-03-19T07:36:15;12.30;99.90
39067;DHT22;24821;51.988;6.020;2023-03-19T07:38:40;12.40;99.90
39067;DHT22;24821;51.988;6.020;2023-03-19T07:41:06;12.40;99.90
39067;DHT22;24821;51.988;6.020;2023-03-19T07:43:31;12.40;99.90
39067;DHT22;24821;51.988;6.020;2023-03-19T07:45:57;12.40;99.90
39067;DHT22;24821;51.988;6.020;2023-03-19T07:48:23;12.40;99.90
39067;DHT22;24821;51.988;6.020;2023-03-19T07:50:50;12.50;99.90
39067;DHT22;24821;51.988;6.020;2023-03-19T07:53:16;12.50;99.90
39067;DHT22;24821;51.988;6.020;2023-03-19T07:55:41;12.50;99.90
39067;DHT22;24821;51.988;6.020;2023-03-19T07:58:07;12.60;99.90
39067;DHT22;24821;51.988;6.020;2023-03-19T08:00:32;12.70;99.90
39067;DHT22;24821;51.988;6.020;2023-03-19T08:02:58;12.80;99.90
39067;DHT22;24821;51.988;6.020;2023-03-19T08:05:25;12.80;99.90
39067;DHT22;24821;51.988;6.020;2023-03-19T08:07:50;12.80;99.90
39067;DHT22;24821;51.988;6.020;2023-03-19T08:10:17;12.80;99.90
39067;DHT22;24821;51.988;6.020;2023-03-19T08:12:42;12.90;99.90
39067;DHT22;24821;51.988;6.020;2023-03-19T08:15:10;12.90;99.90
39067;DHT22;24821;51.988;6.020;2023-03-19T08:17:36;13.00;99.90
39067;DHT22;24821;51.988;6.020;2023-03-19T08:20:06;13.10;99.90
39067;DHT22;24821;51.988;6.020;2023-03-19T08:22:33;13.10;99.90
39067;DHT22;24821;51.988;6.020;2023-03-19T08:24:59;13.10;99.90
39067;DHT22;24821;51.988;6.020;2023-03-19T08:27:25;13.20;99.90
39067;DHT22;24821;51.988;6.020;2023-03-19T08:29:52;13.20;99.90
39067;DHT22;24821;51.988;6.020;2023-03-19T08:32:17;13.10;99.90
39067;DHT22;24821;51.988;6.020;2023-03-19T08:34:43;13.20;99.90
39067;DHT22;24821;51.988;6.020;2023-03-19T08:37:08;13.20;99.90
39067;DHT22;24821;51.988;6.020;2023-03-19T08:39:34;13.20;99.90
39067;DHT22;24821;51.988;6.020;2023-03-19T08:42:00;13.30;99.90
39067;DHT22;24821;51.988;6.020;2023-03-19T08:44:25;13.30;99.90
39067;DHT22;24821;51.988;6.020;2023-03-19T08:46:51;13.30;99.90
39067;DHT22;24821;51.988;6.020;2023-03-19T08:49:17;13.40;99.90
39067;DHT22;24821;51.988;6.020;2023-03-19T08:51:42;13.40;99.90
39067;DHT22;24821;51.988;6.020;2023-03-19T08:54:08;13.50;99.90
39067;DHT22;24821;51.988;6.020;2023-03-19T08:56:35;13.40;99.90
39067;DHT22;24821;51.988;6.020;2023-03-19T08:59:01;13.40;99.90
39067;DHT22;24821;51.988;6.020;2023-03-19T09:01:26;13.50;99.90
39067;DHT22;24821;51.988;6.020;2023-03-19T09:03:52;13.60;99.90
39067;DHT22;24821;51.988;6.020;2023-03-19T09:06:18;13.70;99.90
39067;DHT22;24821;51.988;6.020;2023-03-19T09:08:43;13.70;99.90
39067;DHT22;24821;51.988;6.020;2023-03-19T09:11:09;13.70;99.90
39067;DHT22;24821;51.988;6.020;2023-03-19T09:13:35;13.70;99.90
39067;DHT22;24821;51.988;6.020;2023-03-19T09:16:01;13.80;99.90
39067;DHT22;24821;51.988;6.020;2023-03-19T09:18:27;13.80;99.90
39067;DHT22;24821;51.988;6.020;2023-03-19T09:20:53;13.70;99.90
39067;DHT22;24821;51.988;6.020;2023-03-19T09:23:20;13.80;99.90
39067;DHT22;24821;51.988;6.020;2023-03-19T09:25:46;13.90;99.90
39067;DHT22;24821;51.988;6.020;2023-03-19T09:28:12;13.90;99.90
39067;DHT22;24821;51.988;6.020;2023-03-19T09:30:38;13.90;99.90
39067;DHT22;24821;51.988;6.020;2023-03-19T09:33:04;13.90;99.90
39067;DHT22;24821;51.988;6.020;2023-03-19T09:35:31;14.00;99.90
39067;DHT22;24821;51.988;6.020;2023-03-19T09:38:00;14.10;99.90
39067;DHT22;24821;51.988;6.020;2023-03-19T09:40:51;14.20;99.90
39067;DHT22;24821;51.988;6.020;2023-03-19T09:46:13;14.20;99.90
39067;DHT22;24821;51.988;6.020;2023-03-19T09:48:48;14.30;99.90
39067;DHT22;24821;51.988;6.020;2023-03-19T09:51:22;14.30;99.90
39067;DHT22;24821;51.988;6.020;2023-03-19T09:53:52;14.30;99.90
39067;DHT22;24821;51.988;6.020;2023-03-19T09:56:19;14.30;99.90
39067;DHT22;24821;51.988;6.020;2023-03-19T09:58:46;14.40;99.90
39067;DHT22;24821;51.988;6.020;2023-03-19T10:01:26;14.50;99.90
39067;DHT22;24821;51.988;6.020;2023-03-19T10:04:21;14.60;99.90
39067;DHT22;24821;51.988;6.020;2023-03-19T10:06:54;14.60;99.90
39067;DHT22;24821;51.988;6.020;2023-03-19T10:09:41;14.60;99.90
39067;DHT22;24821;51.988;6.020;2023-03-19T10:15:18;14.80;99.90
39067;DHT22;24821;51.988;6.020;2023-03-19T10:17:59;14.80;99.90
39067;DHT22;24821;51.988;6.020;2023-03-19T10:21:04;14.80;99.90
39067;DHT22;24821;51.988;6.020;2023-03-19T10:25:59;14.80;99.90
39067;DHT22;24821;51.988;6.020;2023-03-19T10:28:28;14.80;99.90
39067;DHT22;24821;51.988;6.020;2023-03-19T10:33:52;14.80;99.90
39067;DHT22;24821;51.988;6.020;2023-03-19T10:36:19;14.80;99.90
39067;DHT22;24821;51.988;6.020;2023-03-19T10:38:46;14.70;99.90
39067;DHT22;24821;51.988;6.020;2023-03-19T10:41:30;14.60;99.90
39067;DHT22;24821;51.988;6.020;2023-03-19T10:44:06;14.60;99.90
39067;DHT22;24821;51.988;6.020;2023-03-19T10:46:39;14.60;99.90
39067;DHT22;24821;51.988;6.020;2023-03-19T10:49:11;14.60;99.90
39067;DHT22;24821;51.988;6.020;2023-03-19T10:51:37;14.70;99.90
39067;DHT22;24821;51.988;6.020;2023-03-19T10:54:22;14.50;99.90
39067;DHT22;24821;51.988;6.020;2023-03-19T10:56:49;14.50;99.90
39067;DHT22;24821;51.988;6.020;2023-03-19T11:01:48;14.70;99.90
39067;DHT22;24821;51.988;6.020;2023-03-19T11:04:19;14.80;99.90
39067;DHT22;24821;51.988;6.020;2023-03-19T11:06:50;14.90;99.90
39067;DHT22;24821;51.988;6.020;2023-03-19T11:11:57;15.00;99.90
39067;DHT22;24821;51.988;6.020;2023-03-19T11:14:37;15.00;99.90
39067;DHT22;24821;51.988;6.020;2023-03-19T11:17:24;15.10;99.90
39067;DHT22;24821;51.988;6.020;2023-03-19T11:19:58;15.10;99.90
39067;DHT22;24821;51.988;6.020;2023-03-19T11:22:30;15.10;99.90
39067;DHT22;24821;51.988;6.020;2023-03-19T11:25:14;15.20;99.90
39067;DHT22;24821;51.988;6.020;2023-03-19T11:27:43;15.30;99.90
39067;DHT22;24821;51.988;6.020;2023-03-19T11:30:16;15.30;99.90
39067;DHT22;24821;51.988;6.020;2023-03-19T11:35:47;15.30;99.90
39067;DHT22;24821;51.988;6.020;2023-03-19T11:38:24;15.20;99.90
39067;DHT22;24821;51.988;6.020;2023-03-19T11:41:10;15.20;99.90
39067;DHT22;24821;51.988;6.020;2023-03-19T11:43:55;15.30;99.90
39067;DHT22;24821;51.988;6.020;2023-03-19T11:46:57;15.40;99.90
39067;DHT22;24821;51.988;6.020;2023-03-19T11:50:01;15.40;99.90
39067;DHT22;24821;51.988;6.020;2023-03-19T11:55:24;15.60;99.90
39067;DHT22;24821;51.988;6.020;2023-03-19T11:58:19;15.60;99.90
39067;DHT22;24821;51.988;6.020;2023-03-19T12:00:52;15.80;99.90
39067;DHT22;24821;51.988;6.020;2023-03-19T12:05:58;15.70;99.90
39067;DHT22;24821;51.988;6.020;2023-03-19T12:09:02;15.70;99.90
39067;DHT22;24821;51.988;6.020;2023-03-19T12:17:09;16.10;99.90
39067;DHT22;24821;51.988;6.020;2023-03-19T12:20:10;16.20;99.90
39067;DHT22;24821;51.988;6.020;2023-03-19T12:23:05;16.10;99.90
39067;DHT22;24821;51.988;6.020;2023-03-19T12:25:57;16.00;99.90
39067;DHT22;24821;51.988;6.020;2023-03-19T12:28:34;15.90;99.90
39067;DHT22;24821;51.988;6.020;2023-03-19T12:33:47;15.90;99.90
39067;DHT22;24821;51.988;6.020;2023-03-19T12:36:21;15.90;99.90
39067;DHT22;24821;51.988;6.020;2023-03-19T12:39:17;15.90;99.90
39067;DHT22;24821;51.988;6.020;2023-03-19T12:41:42;15.90;99.90
39067;DHT22;24821;51.988;6.020;2023-03-19T12:44:09;15.80;99.90
39067;DHT22;24821;51.988;6.020;2023-03-19T12:49:30;15.90;99.90
39067;DHT22;24821;51.988;6.020;2023-03-19T12:54:58;16.00;99.90
39067;DHT22;24821;51.988;6.020;2023-03-19T13:00:36;16.00;99.90
39067;DHT22;24821;51.988;6.020;2023-03-19T13:06:18;15.60;99.90
39067;DHT22;24821;51.988;6.020;2023-03-19T13:14:12;15.40;99.90
39067;DHT22;24821;51.988;6.020;2023-03-19T13:19:49;15.40;99.90
39067;DHT22;24821;51.988;6.020;2023-03-19T13:22:41;15.30;99.90
39067;DHT22;24821;51.988;6.020;2023-03-19T13:25:09;15.40;99.90
39067;DHT22;24821;51.988;6.020;2023-03-19T13:27:39;15.40;99.90
39067;DHT22;24821;51.988;6.020;2023-03-19T13:32:40;15.60;99.90
39067;DHT22;24821;51.988;6.020;2023-03-19T13:35:30;15.70;99.90
39067;DHT22;24821;51.988;6.020;2023-03-19T13:40:51;16.00;99.90
39067;DHT22;24821;51.988;6.020;2023-03-19T13:46:01;16.20;99.90
39067;DHT22;24821;51.988;6.020;2023-03-19T13:53:43;16.40;99.90
39067;DHT22;24821;51.988;6.020;2023-03-19T13:56:16;16.50;99.90
39067;DHT22;24821;51.988;6.020;2023-03-19T13:59:17;16.70;99.90
39067;DHT22;24821;51.988;6.020;2023-03-19T14:01:39;16.80;99.90
39067;DHT22;24821;51.988;6.020;2023-03-19T14:12:33;16.90;99.90
39067;DHT22;24821;51.988;6.020;2023-03-19T14:17:37;16.90;99.90
39067;DHT22;24821;51.988;6.020;2023-03-19T14:23:10;16.70;99.90
39067;DHT22;24821;51.988;6.020;2023-03-19T14:28:36;16.60;99.90
39067;DHT22;24821;51.988;6.020;2023-03-19T14:31:03;16.50;99.90
39067;DHT22;24821;51.988;6.020;2023-03-19T14:33:48;16.40;99.90
39067;DHT22;24821;51.988;6.020;2023-03-19T14:36:17;16.40;99.90
39067;DHT22;24821;51.988;6.020;2023-03-19T14:38:52;16.40;99.90
39067;DHT22;24821;51.988;6.020;2023-03-19T14:41:20;16.30;99.90
39067;DHT22;24821;51.988;6.020;2023-03-19T14:52:27;16.20;99.90
39067;DHT22;24821;51.988;6.020;2023-03-19T14:55:18;16.10;99.90
39067;DHT22;24821;51.988;6.020;2023-03-19T14:57:44;16.10;99.90
39067;DHT22;24821;51.988;6.020;2023-03-19T15:00:15;16.10;99.90
39067;DHT22;24821;51.988;6.020;2023-03-19T15:02:50;16.10;99.90
39067;DHT22;24821;51.988;6.020;2023-03-19T15:07:48;16.20;99.90
39067;DHT22;24821;51.988;6.020;2023-03-19T15:10:20;16.20;99.90
39067;DHT22;24821;51.988;6.020;2023-03-19T15:15:38;16.10;99.90
39067;DHT22;24821;51.988;6.020;2023-03-19T15:18:08;16.10;99.90
39067;DHT22;24821;51.988;6.020;2023-03-19T15:20:37;16.10;99.90
39067;DHT22;24821;51.988;6.020;2023-03-19T15:23:06;16.20;99.90
39067;DHT22;24821;51.988;6.020;2023-03-19T15:25:33;16.10;99.90
39067;DHT22;24821;51.988;6.020;2023-03-19T15:28:14;16.10;99.90
39067;DHT22;24821;51.988;6.020;2023-03-19T15:30:40;16.10;99.90
39067;DHT22;24821;51.988;6.020;2023-03-19T15:33:20;16.00;99.90
39067;DHT22;24821;51.988;6.020;2023-03-19T15:36:17;15.90;99.70
39067;DHT22;24821;51.988;6.020;2023-03-19T15:41:15;15.80;99.80
39067;DHT22;24821;51.988;6.020;2023-03-19T15:43:42;15.80;99.90
39067;DHT22;24821;51.988;6.020;2023-03-19T15:46:11;15.80;99.90
39067;DHT22;24821;51.988;6.020;2023-03-19T15:51:16;15.90;99.90
39067;DHT22;24821;51.988;6.020;2023-03-19T15:53:44;15.80;99.90
39067;DHT22;24821;51.988;6.020;2023-03-19T15:56:12;15.80;99.90
39067;DHT22;24821;51.988;6.020;2023-03-19T15:58:43;15.70;99.90
39067;DHT22;24821;51.988;6.020;2023-03-19T16:01:10;15.70;99.90
39067;DHT22;24821;51.988;6.020;2023-03-19T16:03:39;15.50;99.90
39067;DHT22;24821;51.988;6.020;2023-03-19T16:06:12;15.40;99.90
39067;DHT22;24821;51.988;6.020;2023-03-19T16:08:49;15.40;99.90
39067;DHT22;24821;51.988;6.020;2023-03-19T16:14:01;15.30;99.90
39067;DHT22;24821;51.988;6.020;2023-03-19T16:16:29;15.20;99.90
39067;DHT22;24821;51.988;6.020;2023-03-19T16:18:56;15.20;99.90
39067;DHT22;24821;51.988;6.020;2023-03-19T16:26:42;15.10;99.90
39067;DHT22;24821;51.988;6.020;2023-03-19T16:29:29;15.10;99.90
39067;DHT22;24821;51.988;6.020;2023-03-19T16:36:59;14.90;99.90
39067;DHT22;24821;51.988;6.020;2023-03-19T16:39:35;15.00;99.90
39067;DHT22;24821;51.988;6.020;2023-03-19T16:44:55;15.00;99.90
39067;DHT22;24821;51.988;6.020;2023-03-19T16:47:21;14.90;99.90
39067;DHT22;24821;51.988;6.020;2023-03-19T16:49:47;14.90;99.90
39067;DHT22;24821;51.988;6.020;2023-03-19T16:52:16;14.80;99.90
39067;DHT22;24821;51.988;6.020;2023-03-19T16:54:42;14.90;99.90
39067;DHT22;24821;51.988;6.020;2023-03-19T16:57:12;14.90;99.90
39067;DHT22;24821;51.988;6.020;2023-03-19T16:59:39;14.90;99.90
39067;DHT22;24821;51.988;6.020;2023-03-19T17:02:12;14.90;99.90
39067;DHT22;24821;51.988;6.020;2023-03-19T17:04:39;14.90;99.90
39067;DHT22;24821;51.988;6.020;2023-03-19T17:07:05;14.80;99.90
39067;DHT22;24821;51.988;6.020;2023-03-19T17:09:31;14.70;99.90
39067;DHT22;24821;51.988;6.020;2023-03-19T17:11:57;14.60;99.90
39067;DHT22;24821;51.988;6.020;2023-03-19T17:14:23;14.50;99.90
39067;DHT22;24821;51.988;6.020;2023-03-19T17:16:49;14.40;99.90
39067;DHT22;24821;51.988;6.020;2023-03-19T17:19:20;14.30;99.90
39067;DHT22;24821;51.988;6.020;2023-03-19T17:21:53;14.20;99.90
39067;DHT22;24821;51.988;6.020;2023-03-19T17:24:24;14.20;99.90
39067;DHT22;24821;51.988;6.020;2023-03-19T17:26:51;14.10;99.90
39067;DHT22;24821;51.988;6.020;2023-03-19T17:29:17;14.00;99.90
39067;DHT22;24821;51.988;6.020;2023-03-19T17:31:45;13.90;99.90
39067;DHT22;24821;51.988;6.020;2023-03-19T17:34:21;13.90;99.90
39067;DHT22;24821;51.988;6.020;2023-03-19T17:36:55;13.80;99.90
39067;DHT22;24821;51.988;6.020;2023-03-19T17:39:22;13.80;99.90
39067;DHT22;24821;51.988;6.020;2023-03-19T17:41:48;13.70;99.90
39067;DHT22;24821;51.988;6.020;2023-03-19T17:44:13;13.60;99.90
39067;DHT22;24821;51.988;6.020;2023-03-19T17:46:42;13.50;99.90